Lexa Maersk — OYYL2 — position and weather

sailwx.info

Track history (hours):
 
Tides and Currents Weather Stations Pressure Air Temp Water Temp Dewpoint Dewpoint Depression Visibility Wind Speed Wind Dir Waves Ship Positions

Lexa Maersk

Last reported at 2019-Dec-05 13:00 UTC. Time now 2019-Dec-07 10:03 UTC.
Position N 32°18' W 044°00'.

Length 265.8 m; beam 37.3 m; draft 14 m.

Type: Ship (hazmat cat A). MMSI: 219979000.

Wind from 170 at 15 knots

Barometer 1026.5 mb
Air temperature 23.0 ° C
Visibility: greater than 27.0 NM
Dewpoint 21.5 ° C
Water temperature 20.8 ° C

Date/timePositionNaut miles runAvg speedWind from/ knotsBaromVisibWave heightAir tempDewpointWater temp
2019-Dec-05 13:00N 32°18' W 044°00'46618.7 170 / 151026.527.0 23.021.520.8
2019-Dec-04 12:00N 36°24' W 036°00'37419.7 160 / 121029.527.0 19.013.820.6
2019-Dec-03 17:00N 39°45' W 029°19'  
2019-Dec-01 03:15N 49°53' W 004°04'1621.4
2019-Dec-01 02:30N 49°55' W 003°39'31414.9
2019-Nov-30 05:28N 51°57' E 004°00'0 0.0
2019-Nov-30 04:58N 51°57' E 004°00'0 0.0
2019-Nov-30 03:28N 51°57' E 004°00'0 0.0
2019-Nov-30 02:25N 51°57' E 004°00'0 0.0
2019-Nov-30 00:58N 51°57' E 004°00'0 0.0
2019-Nov-29 22:58N 51°57' E 004°00'0 0.0
2019-Nov-29 21:13N 51°57' E 004°00'0 0.0
2019-Nov-29 20:55N 51°57' E 004°00'0 0.0
2019-Nov-29 20:28N 51°57' E 004°00'0 0.0
2019-Nov-29 19:25N 51°57' E 004°00'3 1.9
2019-Nov-29 18:00N 51°58' E 004°04'2 4.3
2019-Nov-29 17:30N 51°59' E 004°02'9 8.8
2019-Nov-29 16:30N 52°00' E 003°48'4 7.3
2019-Nov-29 16:00N 52°01' E 003°42'2 4.6
2019-Nov-29 15:30N 52°03' E 003°44'10 6.7
2019-Nov-29 14:00N 52°13' E 003°42'7 3.5
2019-Nov-29 12:00N 52°19' E 003°47'4 7.4
2019-Nov-29 11:28N 52°23' E 003°48'171 9.7
2019-Nov-28 17:49N 54°02' E 007°41'1410.8
2019-Nov-28 16:30N 54°01' E 008°05'510.7
2019-Nov-28 16:01N 54°00' E 008°14'2214.8
2019-Nov-28 14:30N 53°50' E 008°48'713.7
2019-Nov-28 14:00N 53°51' E 008°60'611.3
2019-Nov-28 13:30N 53°53' E 009°09'34 5.6
2019-Nov-28 07:28N 53°32' E 009°54'0 0.0
2019-Nov-28 06:28N 53°32' E 009°54'0 0.0
2019-Nov-28 04:58N 53°32' E 009°54'0 0.0
2019-Nov-28 04:28N 53°32' E 009°54'0 0.0
2019-Nov-28 02:28N 53°32' E 009°54'0 0.0
2019-Nov-28 01:28N 53°32' E 009°54'0 0.0
2019-Nov-27 23:58N 53°32' E 009°54'0 0.0
2019-Nov-27 21:28N 53°32' E 009°54'0 0.0
2019-Nov-27 20:58N 53°32' E 009°54'0 0.0
2019-Nov-27 20:28N 53°32' E 009°54'0 0.0
2019-Nov-27 19:58N 53°32' E 009°54'0 0.0
2019-Nov-27 19:28N 53°32' E 009°54'0 0.0
2019-Nov-27 17:28N 53°32' E 009°54'0 0.0
2019-Nov-27 16:58N 53°32' E 009°54'0 0.0
2019-Nov-27 16:28N 53°32' E 009°54'0 0.0
2019-Nov-27 15:28N 53°32' E 009°54'0 0.0
2019-Nov-27 14:28N 53°32' E 009°54'0 0.0
2019-Nov-27 13:58N 53°32' E 009°54'0 0.5
2019-Nov-27 13:00N 53°32' E 009°54'1510.1
2019-Nov-27 11:30N 53°39' E 009°31'1811.7
2019-Nov-27 10:00N 53°53' E 009°12'510.0
2019-Nov-27 09:30N 53°52' E 009°03'1212.2
2019-Nov-27 08:31N 53°53' E 008°43'2311.7
2019-Nov-27 06:30N 53°59' E 008°05'3912.9
2019-Nov-27 03:30N 53°51' E 007°00'13916.9
2019-Nov-26 19:19N 52°33' E 003°49'717.7
2019-Nov-26 18:55N 52°28' E 003°41'8018.1
2019-Nov-26 14:31N 51°48' E 001°48'1610.8
2019-Nov-26 13:01N 51°40' E 001°25'3614.3
2019-Nov-26 10:31N 51°30' E 000°30'0 0.1
2019-Nov-26 09:00N 51°30' E 000°30'0 0.0
2019-Nov-26 07:30N 51°30' E 000°30'0 0.0
2019-Nov-26 07:00N 51°30' E 000°30'0 0.0
2019-Nov-26 06:30N 51°30' E 000°30'0 0.0
2019-Nov-26 05:31N 51°30' E 000°30'0 0.0
2019-Nov-26 03:30N 51°30' E 000°30'0 0.0
2019-Nov-26 00:00N 51°30' E 000°30'32 5.7
2019-Nov-25 18:30N 51°37' E 001°20'2210.8
2019-Nov-25 16:30N 51°54' E 001°42'0 0.1
2019-Nov-25 13:30N 51°54' E 001°42'  
Track history (hours):
 
Tides and Currents Weather Stations Pressure Air Temp Water Temp Dewpoint Dewpoint Depression Visibility Wind Speed Wind Dir Waves Ship Positions

Lexa Maersk

Last reported at 2019-Dec-05 13:00 UTC. Time now 2019-Dec-07 10:03 UTC.
Position N 32°18' W 044°00'.

Length 265.8 m; beam 37.3 m; draft 14 m.

Type: Ship (hazmat cat A). MMSI: 219979000.

Wind from 170 at 15 knots

Barometer 1026.5 mb
Air temperature 23.0 ° C
Visibility: greater than 27.0 NM
Dewpoint 21.5 ° C
Water temperature 20.8 ° C

Date/timePositionNaut miles runAvg speedWind from/ knotsBaromVisibWave heightAir tempDewpointWater temp
2019-Dec-05 13:00N 32°18' W 044°00'46618.7 170 / 151026.527.0 23.021.520.8
2019-Dec-04 12:00N 36°24' W 036°00'37419.7 160 / 121029.527.0 19.013.820.6
2019-Dec-03 17:00N 39°45' W 029°19'  
2019-Dec-01 03:15N 49°53' W 004°04'1621.4
2019-Dec-01 02:30N 49°55' W 003°39'31414.9
2019-Nov-30 05:28N 51°57' E 004°00'0 0.0
2019-Nov-30 04:58N 51°57' E 004°00'0 0.0
2019-Nov-30 03:28N 51°57' E 004°00'0 0.0
2019-Nov-30 02:25N 51°57' E 004°00'0 0.0
2019-Nov-30 00:58N 51°57' E 004°00'0 0.0
2019-Nov-29 22:58N 51°57' E 004°00'0 0.0
2019-Nov-29 21:13N 51°57' E 004°00'0 0.0
2019-Nov-29 20:55N 51°57' E 004°00'0 0.0
2019-Nov-29 20:28N 51°57' E 004°00'0 0.0
2019-Nov-29 19:25N 51°57' E 004°00'3 1.9
2019-Nov-29 18:00N 51°58' E 004°04'2 4.3
2019-Nov-29 17:30N 51°59' E 004°02'9 8.8
2019-Nov-29 16:30N 52°00' E 003°48'4 7.3
2019-Nov-29 16:00N 52°01' E 003°42'2 4.6
2019-Nov-29 15:30N 52°03' E 003°44'10 6.7
2019-Nov-29 14:00N 52°13' E 003°42'7 3.5
2019-Nov-29 12:00N 52°19' E 003°47'4 7.4
2019-Nov-29 11:28N 52°23' E 003°48'171 9.7
2019-Nov-28 17:49N 54°02' E 007°41'1410.8
2019-Nov-28 16:30N 54°01' E 008°05'510.7
2019-Nov-28 16:01N 54°00' E 008°14'2214.8
2019-Nov-28 14:30N 53°50' E 008°48'713.7
2019-Nov-28 14:00N 53°51' E 008°60'611.3
2019-Nov-28 13:30N 53°53' E 009°09'34 5.6
2019-Nov-28 07:28N 53°32' E 009°54'0 0.0
2019-Nov-28 06:28N 53°32' E 009°54'0 0.0
2019-Nov-28 04:58N 53°32' E 009°54'0 0.0
2019-Nov-28 04:28N 53°32' E 009°54'0 0.0
2019-Nov-28 02:28N 53°32' E 009°54'0 0.0
2019-Nov-28 01:28N 53°32' E 009°54'0 0.0
2019-Nov-27 23:58N 53°32' E 009°54'0 0.0
2019-Nov-27 21:28N 53°32' E 009°54'0 0.0
2019-Nov-27 20:58N 53°32' E 009°54'0 0.0
2019-Nov-27 20:28N 53°32' E 009°54'0 0.0
2019-Nov-27 19:58N 53°32' E 009°54'0 0.0
2019-Nov-27 19:28N 53°32' E 009°54'0 0.0
2019-Nov-27 17:28N 53°32' E 009°54'0 0.0
2019-Nov-27 16:58N 53°32' E 009°54'0 0.0
2019-Nov-27 16:28N 53°32' E 009°54'0 0.0
2019-Nov-27 15:28N 53°32' E 009°54'0 0.0
2019-Nov-27 14:28N 53°32' E 009°54'0 0.0
2019-Nov-27 13:58N 53°32' E 009°54'0 0.5
2019-Nov-27 13:00N 53°32' E 009°54'1510.1
2019-Nov-27 11:30N 53°39' E 009°31'1811.7
2019-Nov-27 10:00N 53°53' E 009°12'510.0
2019-Nov-27 09:30N 53°52' E 009°03'1212.2
2019-Nov-27 08:31N 53°53' E 008°43'2311.7
2019-Nov-27 06:30N 53°59' E 008°05'3912.9
2019-Nov-27 03:30N 53°51' E 007°00'13916.9
2019-Nov-26 19:19N 52°33' E 003°49'717.7
2019-Nov-26 18:55N 52°28' E 003°41'8018.1
2019-Nov-26 14:31N 51°48' E 001°48'1610.8
2019-Nov-26 13:01N 51°40' E 001°25'3614.3
2019-Nov-26 10:31N 51°30' E 000°30'0 0.1
2019-Nov-26 09:00N 51°30' E 000°30'0 0.0
2019-Nov-26 07:30N 51°30' E 000°30'0 0.0
2019-Nov-26 07:00N 51°30' E 000°30'0 0.0
2019-Nov-26 06:30N 51°30' E 000°30'0 0.0
2019-Nov-26 05:31N 51°30' E 000°30'0 0.0
2019-Nov-26 03:30N 51°30' E 000°30'0 0.0
2019-Nov-26 00:00N 51°30' E 000°30'32 5.7
2019-Nov-25 18:30N 51°37' E 001°20'2210.8
2019-Nov-25 16:30N 51°54' E 001°42'0 0.1
2019-Nov-25 13:30N 51°54' E 001°42'  

Dump ship's entire track history